createdAt,value
2023-10-20T00:00:07.909Z,96610.20
2023-10-20T00:03:05.310Z,96608.60
2023-10-20T00:06:02.950Z,96614.00
2023-10-20T00:09:00.615Z,96614.60
2023-10-20T00:12:00.425Z,96618.60
2023-10-20T00:14:58.003Z,96619.40
2023-10-20T00:17:55.781Z,96616.00
2023-10-20T00:20:53.175Z,96596.80
2023-10-20T00:23:50.777Z,96585.40
2023-10-20T00:26:48.206Z,96584.60
2023-10-20T00:29:45.913Z,96582.20
2023-10-20T00:32:43.400Z,96580.20
2023-10-20T00:35:41.146Z,96567.80
2023-10-20T00:38:38.523Z,96548.40
2023-10-20T00:41:37.316Z,96548.40
2023-10-20T00:44:34.926Z,96555.00
2023-10-20T00:47:33.208Z,96559.80
2023-10-20T00:50:31.719Z,96554.20
2023-10-20T00:53:29.780Z,96542.80
2023-10-20T00:56:27.697Z,96536.00
2023-10-20T00:59:25.428Z,96533.80
2023-10-20T01:02:22.894Z,96544.60
2023-10-20T01:05:24.030Z,96539.60
2023-10-20T01:08:21.598Z,96537.60
2023-10-20T01:11:19.497Z,96539.80
2023-10-20T01:14:16.935Z,96536.80
2023-10-20T01:17:14.992Z,96533.00
2023-10-20T01:20:12.494Z,96521.80
2023-10-20T01:23:10.177Z,96522.60
2023-10-20T01:26:08.946Z,96534.80
2023-10-20T01:29:11.034Z,96523.80
2023-10-20T01:32:08.450Z,96509.60
2023-10-20T01:35:06.196Z,96519.00
2023-10-20T01:38:05.176Z,96519.40
2023-10-20T01:41:03.123Z,96508.80
2023-10-20T01:44:00.881Z,96501.20
2023-10-20T01:46:58.372Z,96493.20
2023-10-20T01:49:56.463Z,96474.00
2023-10-20T01:52:53.836Z,96473.80
2023-10-20T01:55:52.214Z,96473.80
2023-10-20T01:58:49.879Z,96474.40
2023-10-20T02:01:47.270Z,96466.20
2023-10-20T02:04:44.914Z,96459.40
2023-10-20T02:07:42.269Z,96449.00
2023-10-20T02:10:39.913Z,96438.00
2023-10-20T02:13:38.218Z,96423.80
2023-10-20T02:16:35.894Z,96428.60
2023-10-20T02:19:33.288Z,96429.00
2023-10-20T02:22:31.169Z,96431.80
2023-10-20T02:25:28.858Z,96435.40
2023-10-20T02:28:26.218Z,96427.60
2023-10-20T02:31:24.821Z,96425.20
2023-10-20T02:34:22.278Z,96423.40
2023-10-20T02:37:19.926Z,96417.20
2023-10-20T02:40:17.289Z,96412.00
2023-10-20T02:43:16.470Z,96410.60
2023-10-20T02:46:14.223Z,96407.60
2023-10-20T02:49:11.932Z,96403.80
2023-10-20T02:52:09.328Z,96401.40
2023-10-20T02:55:07.058Z,96393.00
2023-10-20T02:58:04.478Z,96392.60
2023-10-20T03:01:04.238Z,96389.40
2023-10-20T03:04:02.482Z,96376.80
2023-10-20T03:07:00.257Z,96377.40
2023-10-20T03:09:58.160Z,96377.40
2023-10-20T03:12:55.801Z,96381.00
2023-10-20T03:15:53.180Z,96387.80
2023-10-20T03:18:50.830Z,96395.00
2023-10-20T03:21:48.939Z,96394.00
2023-10-20T03:24:46.860Z,96390.60
2023-10-20T03:27:44.223Z,96385.60
2023-10-20T03:30:41.749Z,96390.40
2023-10-20T03:33:39.147Z,96391.00
2023-10-20T03:36:36.809Z,96381.60
2023-10-20T03:39:34.588Z,96369.60
2023-10-20T03:42:32.270Z,96366.40
2023-10-20T03:45:29.641Z,96360.20
2023-10-20T03:48:30.764Z,96359.20
2023-10-20T03:51:28.516Z,96363.60
2023-10-20T03:54:27.186Z,96366.20
2023-10-20T03:57:24.627Z,96378.00
2023-10-20T04:00:29.275Z,96374.60
2023-10-20T04:03:27.428Z,96358.60
2023-10-20T04:06:25.128Z,96351.40
2023-10-20T04:09:23.412Z,96353.80
2023-10-20T04:12:21.067Z,96354.80
2023-10-20T04:15:20.838Z,96372.60
2023-10-20T04:18:18.575Z,96358.00
2023-10-20T04:21:16.024Z,96344.60
2023-10-20T04:24:13.784Z,96349.60
2023-10-20T04:27:21.935Z,96341.20
2023-10-20T04:30:37.350Z,96333.60
2023-10-20T04:33:52.633Z,96336.00
2023-10-20T04:37:19.802Z,96330.20
2023-10-20T04:40:34.996Z,96314.80
2023-10-20T04:43:38.893Z,96310.20
2023-10-20T04:46:54.443Z,96312.80
2023-10-20T04:50:15.405Z,96311.00
2023-10-20T04:53:34.090Z,96296.60
2023-10-20T04:56:54.936Z,96294.80
2023-10-20T05:00:12.969Z,96295.40
2023-10-20T05:03:36.461Z,96290.20
2023-10-20T05:06:44.023Z,96287.40
2023-10-20T05:09:44.969Z,96303.80
2023-10-20T05:12:42.646Z,96299.20
2023-10-20T05:15:41.762Z,96284.60
2023-10-20T05:18:39.444Z,96284.00
2023-10-20T05:21:39.550Z,96280.20
2023-10-20T05:24:37.337Z,96280.40
2023-10-20T05:27:34.708Z,96273.80
2023-10-20T05:30:32.366Z,96272.20
2023-10-20T05:33:29.793Z,96264.80
2023-10-20T05:36:27.596Z,96279.20
2023-10-20T05:39:24.981Z,96271.40
2023-10-20T05:42:22.688Z,96261.80
2023-10-20T05:45:22.181Z,96254.00
2023-10-20T05:48:19.846Z,96263.40
2023-10-20T05:51:17.634Z,96268.80
2023-10-20T05:54:15.060Z,96268.40
2023-10-20T05:57:12.774Z,96266.80
2023-10-20T06:00:10.767Z,96253.80
2023-10-20T06:03:08.818Z,96260.00
2023-10-20T06:06:06.487Z,96266.60
2023-10-20T06:09:03.880Z,96264.00
2023-10-20T06:12:01.456Z,96276.20
2023-10-20T06:14:58.810Z,96267.00
2023-10-20T06:17:58.981Z,96263.80
2023-10-20T06:20:56.456Z,96250.40
2023-10-20T06:23:54.112Z,96246.80
2023-10-20T06:26:51.808Z,96264.80
2023-10-20T06:29:49.480Z,96265.20
2023-10-20T06:32:47.504Z,96267.00
2023-10-20T06:35:52.229Z,96257.00
2023-10-20T06:38:50.751Z,96258.60
2023-10-20T06:41:48.268Z,96253.00
2023-10-20T06:44:46.105Z,96246.20
2023-10-20T06:47:44.754Z,96240.00
2023-10-20T06:50:43.463Z,96236.80
2023-10-20T06:53:41.089Z,96236.00
2023-10-20T06:56:39.188Z,96238.60
2023-10-20T06:59:36.594Z,96242.00
2023-10-20T07:02:34.437Z,96239.00
2023-10-20T07:05:32.553Z,96231.20
2023-10-20T07:08:30.980Z,96220.20
2023-10-20T07:11:29.100Z,96212.80
2023-10-20T07:14:26.510Z,96207.20
2023-10-20T07:17:24.128Z,96206.40
2023-10-20T07:20:21.569Z,96207.00
2023-10-20T07:23:19.436Z,96213.80
2023-10-20T07:26:19.346Z,96206.80
2023-10-20T07:29:18.600Z,96202.40
2023-10-20T07:32:16.012Z,96198.40
2023-10-20T07:35:13.873Z,96186.60
2023-10-20T07:38:14.197Z,96189.00
2023-10-20T07:41:12.764Z,96179.00
2023-10-20T07:44:11.058Z,96170.40
2023-10-20T07:47:08.496Z,96170.80
2023-10-20T07:50:07.647Z,96165.20
2023-10-20T07:53:06.477Z,96150.20
2023-10-20T07:56:06.616Z,96150.60
2023-10-20T07:59:05.128Z,96150.40
2023-10-20T08:02:03.265Z,96136.20
2023-10-20T08:05:01.626Z,96134.20
2023-10-20T08:08:00.044Z,96127.80
2023-10-20T08:10:57.559Z,96124.20
2023-10-20T08:13:56.682Z,96117.60
2023-10-20T08:16:54.669Z,96117.80
2023-10-20T08:19:52.926Z,96113.80
2023-10-20T08:22:50.317Z,96106.00
2023-10-20T08:25:48.056Z,96086.60
2023-10-20T08:28:45.660Z,96086.80
2023-10-20T08:31:43.079Z,96104.60
2023-10-20T08:34:40.714Z,96087.80
2023-10-20T08:37:38.182Z,96078.20
2023-10-20T08:40:55.743Z,96074.40
2023-10-20T08:43:53.436Z,96073.80
2023-10-20T08:46:52.296Z,96063.60
2023-10-20T08:49:49.774Z,96061.00
2023-10-20T08:52:48.258Z,96059.00
2023-10-20T08:55:45.921Z,96053.20
2023-10-20T08:58:43.338Z,96054.60
2023-10-20T09:01:41.712Z,96064.20
2023-10-20T09:04:39.646Z,96073.80
2023-10-20T09:07:39.128Z,96050.40
2023-10-20T09:10:37.953Z,96045.20
2023-10-20T09:13:37.867Z,96043.80
2023-10-20T09:16:35.584Z,96058.20
2023-10-20T09:19:33.650Z,96085.20
2023-10-20T09:22:31.631Z,96090.00
2023-10-20T09:25:29.077Z,96082.00
2023-10-20T09:28:26.693Z,96064.80
2023-10-20T09:31:24.186Z,96043.60
2023-10-20T09:34:21.787Z,96034.60
2023-10-20T09:37:19.178Z,96041.40
2023-10-20T09:40:16.903Z,96056.40
2023-10-20T09:43:25.023Z,96067.60
2023-10-20T09:46:23.820Z,96079.40
2023-10-20T09:49:21.422Z,96077.20
2023-10-20T09:52:20.569Z,96065.00
2023-10-20T09:55:18.909Z,96064.20
2023-10-20T09:58:16.594Z,96048.20
2023-10-20T10:01:14.065Z,96052.80
2023-10-20T10:04:12.851Z,96052.20
2023-10-20T10:07:10.633Z,96048.40
2023-10-20T10:10:09.083Z,96035.40
2023-10-20T10:13:07.412Z,96041.80
2023-10-20T10:16:04.822Z,96039.20
2023-10-20T10:19:03.168Z,96041.00
2023-10-20T10:22:00.601Z,96039.80
2023-10-20T10:24:58.210Z,96033.00
2023-10-20T10:27:56.040Z,96036.00
2023-10-20T10:30:53.685Z,96030.80
2023-10-20T10:33:51.659Z,96033.60
2023-10-20T10:36:49.090Z,96039.60
2023-10-20T10:39:46.752Z,96036.00
2023-10-20T10:42:45.510Z,96055.80
2023-10-20T10:45:43.366Z,96051.40
2023-10-20T10:48:40.954Z,96052.00
2023-10-20T10:51:38.826Z,96049.80
2023-10-20T10:54:36.881Z,96049.40
2023-10-20T10:57:36.570Z,96049.20
2023-10-20T11:00:34.010Z,96029.80
2023-10-20T11:03:31.781Z,96027.80
2023-10-20T11:06:31.622Z,96032.40
2023-10-20T11:09:31.000Z,96039.40
2023-10-20T11:12:28.604Z,96041.00
2023-10-20T11:15:26.349Z,96039.60
2023-10-20T11:18:23.812Z,96033.20
2023-10-20T11:21:21.480Z,96030.60
2023-10-20T11:24:18.863Z,96027.40
2023-10-20T11:27:16.411Z,96034.80
2023-10-20T11:30:14.367Z,96027.40
2023-10-20T11:33:15.742Z,96029.60
2023-10-20T11:36:14.416Z,96023.00
2023-10-20T11:39:14.181Z,96017.40
2023-10-20T11:42:13.332Z,96030.80
2023-10-20T11:45:13.862Z,96024.00
2023-10-20T11:48:11.686Z,96023.40
2023-10-20T11:51:10.283Z,96025.60
2023-10-20T11:54:08.513Z,96025.60
2023-10-20T11:57:06.225Z,96034.40
2023-10-20T12:00:08.947Z,96033.80
2023-10-20T12:03:06.574Z,96033.20
2023-10-20T12:06:04.089Z,96042.60
2023-10-20T12:09:01.847Z,96038.80
2023-10-20T12:11:59.611Z,96029.40
2023-10-20T12:14:57.034Z,96034.40
2023-10-20T12:17:54.896Z,96043.40
2023-10-20T12:20:52.517Z,96043.80
2023-10-20T12:23:50.214Z,96057.60
2023-10-20T12:26:48.869Z,96047.00
2023-10-20T12:29:46.419Z,96055.40
2023-10-20T12:32:44.929Z,96059.80
2023-10-20T12:35:42.414Z,96063.60
2023-10-20T12:38:40.104Z,96058.40
2023-10-20T12:41:37.685Z,96060.80
2023-10-20T12:44:35.996Z,96051.40
2023-10-20T12:47:34.256Z,96071.80
2023-10-20T12:50:34.202Z,96069.40
2023-10-20T12:53:32.377Z,96071.00
2023-10-20T12:56:29.883Z,96075.60
2023-10-20T12:59:27.736Z,96076.20
2023-10-20T13:02:25.197Z,96078.80
2023-10-20T13:05:23.884Z,96091.60
2023-10-20T13:08:21.719Z,96093.60
2023-10-20T13:11:19.188Z,96065.20
2023-10-20T13:14:16.752Z,96073.40
2023-10-20T13:17:15.795Z,96082.00
2023-10-20T13:20:15.136Z,96079.00
2023-10-20T13:23:13.528Z,96085.00
2023-10-20T13:26:11.868Z,96083.00
2023-10-20T13:29:09.268Z,96098.40
2023-10-20T13:32:07.108Z,96091.20
2023-10-20T13:35:04.542Z,96094.40
2023-10-20T13:38:02.224Z,96093.00
2023-10-20T13:41:00.025Z,96098.60
2023-10-20T13:43:57.684Z,96088.80
2023-10-20T13:46:55.117Z,96095.60
2023-10-20T13:49:52.889Z,96113.60
2023-10-20T13:52:50.274Z,96116.60
2023-10-20T13:55:48.121Z,96119.80
2023-10-20T13:58:45.530Z,96127.00
2023-10-20T14:01:43.242Z,96119.00
2023-10-20T14:04:40.711Z,96140.40
2023-10-20T14:07:38.358Z,96136.00
2023-10-20T14:10:36.636Z,96129.60
2023-10-20T14:13:34.226Z,96132.60
2023-10-20T14:16:33.729Z,96143.20
2023-10-20T14:19:33.341Z,96146.60
2023-10-20T14:22:31.706Z,96151.40
2023-10-20T14:25:29.258Z,96166.80
2023-10-20T14:28:32.927Z,96159.40
2023-10-20T14:31:30.829Z,96155.80
2023-10-20T14:34:28.535Z,96162.40
2023-10-20T14:37:26.615Z,96171.40
2023-10-20T14:40:24.165Z,96168.40
2023-10-20T14:43:21.599Z,96175.60
2023-10-20T14:46:19.330Z,96141.20
2023-10-20T14:49:17.076Z,96124.80
2023-10-20T14:52:14.919Z,96128.80
2023-10-20T14:55:12.720Z,96137.60
2023-10-20T14:58:10.318Z,96163.80
2023-10-20T15:01:07.737Z,96170.80
2023-10-20T15:04:17.994Z,96209.20
2023-10-20T15:07:24.247Z,96219.20
2023-10-20T15:10:22.381Z,96235.00
2023-10-20T15:13:20.460Z,96251.40
2023-10-20T15:16:18.127Z,96268.60
2023-10-20T15:19:15.612Z,96277.00
2023-10-20T15:22:13.373Z,96273.20
2023-10-20T15:25:10.843Z,96269.60
2023-10-20T15:28:08.652Z,96278.40
2023-10-20T15:31:13.665Z,96270.60
2023-10-20T15:34:11.397Z,96275.00
2023-10-20T15:37:09.097Z,96278.80
2023-10-20T15:40:17.629Z,96285.40
2023-10-20T15:43:16.390Z,96286.80
2023-10-20T15:46:14.358Z,96268.20
2023-10-20T15:49:12.087Z,96271.80
2023-10-20T15:52:09.549Z,96267.80
2023-10-20T15:55:07.298Z,96268.40
2023-10-20T15:58:05.762Z,96282.20
2023-10-20T16:01:05.726Z,96284.00
2023-10-20T16:04:04.014Z,96279.00
2023-10-20T16:07:01.689Z,96282.80
2023-10-20T16:09:59.358Z,96298.40
2023-10-20T16:12:57.221Z,96304.20
2023-10-20T16:15:55.003Z,96311.20
2023-10-20T16:18:52.911Z,96303.80
2023-10-20T16:21:52.318Z,96315.00
2023-10-20T16:24:50.052Z,96330.00
2023-10-20T16:27:47.948Z,96339.80
2023-10-20T16:30:46.131Z,96335.40
2023-10-20T16:33:44.504Z,96337.80
2023-10-20T16:36:42.610Z,96337.80
2023-10-20T16:39:41.626Z,96336.20
2023-10-20T16:42:39.823Z,96337.00
2023-10-20T16:45:38.425Z,96350.20
2023-10-20T16:48:37.089Z,96360.20
2023-10-20T16:51:35.064Z,96360.00
2023-10-20T16:54:33.688Z,96366.60
2023-10-20T16:57:32.786Z,96368.00
2023-10-20T17:00:32.649Z,96368.40
2023-10-20T17:03:32.130Z,96369.80
2023-10-20T17:06:31.805Z,96385.00
2023-10-20T17:09:32.247Z,96378.40
2023-10-20T17:12:31.964Z,96391.40
2023-10-20T17:15:31.043Z,96396.80
2023-10-20T17:18:29.614Z,96406.60
2023-10-20T17:21:28.502Z,96406.40
2023-10-20T17:24:27.979Z,96410.00
2023-10-20T17:27:27.756Z,96418.80
2023-10-20T17:30:27.982Z,96426.20
2023-10-20T17:33:28.306Z,96430.00
2023-10-20T17:36:31.476Z,96429.60
2023-10-20T17:39:31.029Z,96424.40
2023-10-20T17:42:31.028Z,96420.40
2023-10-20T17:45:30.449Z,96423.40
2023-10-20T17:48:31.211Z,96421.60
2023-10-20T17:51:30.574Z,96422.60
2023-10-20T17:54:30.311Z,96423.00
2023-10-20T17:57:30.048Z,96416.80
2023-10-20T18:00:29.601Z,96415.80
2023-10-20T18:03:29.215Z,96419.20
2023-10-20T18:06:28.907Z,96413.40
2023-10-20T18:09:28.699Z,96413.80
2023-10-20T18:12:28.529Z,96415.60
2023-10-20T18:15:28.149Z,96415.60
2023-10-20T18:18:27.420Z,96418.40
2023-10-20T18:21:27.143Z,96415.40
2023-10-20T18:24:26.667Z,96421.80
2023-10-20T18:27:26.291Z,96416.40
2023-10-20T18:30:25.821Z,96415.60
2023-10-20T18:33:29.038Z,96412.60
2023-10-20T18:36:29.769Z,96415.40
2023-10-20T18:39:29.369Z,96415.20
2023-10-20T18:42:29.107Z,96411.40
2023-10-20T18:45:29.245Z,96410.00
2023-10-20T18:48:29.271Z,96403.20
2023-10-20T18:51:30.116Z,96402.60
2023-10-20T18:54:29.792Z,96424.60
2023-10-20T18:57:30.611Z,96436.00
2023-10-20T19:00:34.108Z,96442.00
2023-10-20T19:03:33.955Z,96457.60
2023-10-20T19:06:33.751Z,96450.80
2023-10-20T19:09:33.806Z,96457.60
2023-10-20T19:12:33.859Z,96452.80
2023-10-20T19:15:33.865Z,96452.20
2023-10-20T19:18:39.729Z,96453.40
2023-10-20T19:21:44.476Z,96455.00
2023-10-20T19:24:44.245Z,96452.20
2023-10-20T19:27:43.787Z,96444.40
2023-10-20T19:30:44.658Z,96458.80
2023-10-20T19:33:45.275Z,96474.40
2023-10-20T19:36:45.324Z,96473.20
2023-10-20T19:39:45.450Z,96476.20
2023-10-20T19:42:44.929Z,96473.80
2023-10-20T19:45:44.860Z,96469.40
2023-10-20T19:48:44.514Z,96471.80
2023-10-20T19:51:44.392Z,96470.40
2023-10-20T19:54:44.366Z,96466.40
2023-10-20T19:57:44.064Z,96469.80
2023-10-20T20:00:43.490Z,96470.00
2023-10-20T20:03:43.371Z,96471.60
2023-10-20T20:06:43.288Z,96475.40
2023-10-20T20:09:42.688Z,96477.00
2023-10-20T20:12:42.196Z,96472.00
2023-10-20T20:15:41.474Z,96472.40
2023-10-20T20:18:41.106Z,96483.00
2023-10-20T20:21:40.387Z,96482.40
2023-10-20T20:24:39.167Z,96470.40
2023-10-20T20:27:37.694Z,96473.80
2023-10-20T20:30:35.592Z,96480.60
2023-10-20T20:33:33.507Z,96481.60
2023-10-20T20:36:31.947Z,96488.40
2023-10-20T20:39:31.482Z,96499.40
2023-10-20T20:42:29.090Z,96504.40
2023-10-20T20:45:26.826Z,96507.80
2023-10-20T20:48:24.299Z,96505.00
2023-10-20T20:51:22.006Z,96495.60
2023-10-20T20:54:19.408Z,96486.00
2023-10-20T20:57:17.063Z,96491.00
2023-10-20T21:00:14.707Z,96481.80
2023-10-20T21:03:14.557Z,96474.40
2023-10-20T21:06:12.163Z,96483.00
2023-10-20T21:09:11.604Z,96484.80
2023-10-20T21:12:09.247Z,96482.40
2023-10-20T21:15:08.942Z,96492.20
2023-10-20T21:18:06.524Z,96496.80
2023-10-20T21:21:04.552Z,96497.80
2023-10-20T21:24:06.520Z,96505.20
2023-10-20T21:27:04.390Z,96499.00
2023-10-20T21:30:01.921Z,96502.20
2023-10-20T21:32:59.873Z,96489.20
2023-10-20T21:35:57.624Z,96482.40
2023-10-20T21:38:55.421Z,96496.60
2023-10-20T21:41:53.078Z,96512.60
2023-10-20T21:44:50.713Z,96521.60
2023-10-20T21:47:48.241Z,96510.40
2023-10-20T21:50:45.886Z,96514.20
2023-10-20T21:53:43.325Z,96509.80
2023-10-20T21:56:40.915Z,96516.20
2023-10-20T21:59:38.598Z,96497.80
2023-10-20T22:02:36.504Z,96505.20
2023-10-20T22:05:34.460Z,96517.20
2023-10-20T22:08:32.167Z,96513.20
2023-10-20T22:11:29.822Z,96518.00
2023-10-20T22:14:27.205Z,96525.20
2023-10-20T22:17:24.975Z,96523.80
2023-10-20T22:20:22.376Z,96516.40
2023-10-20T22:23:20.458Z,96511.60
2023-10-20T22:26:17.919Z,96512.40
2023-10-20T22:29:15.630Z,96512.60
2023-10-20T22:32:13.078Z,96523.40
2023-10-20T22:35:10.724Z,96527.00
2023-10-20T22:38:08.159Z,96528.20
2023-10-20T22:41:05.841Z,96552.00
2023-10-20T22:44:03.647Z,96545.60
2023-10-20T22:47:01.250Z,96545.60
2023-10-20T22:49:58.966Z,96555.80
2023-10-20T22:52:56.448Z,96564.80
2023-10-20T22:55:53.994Z,96565.20
2023-10-20T22:58:51.452Z,96564.80
2023-10-20T23:01:49.632Z,96563.40
2023-10-20T23:04:47.184Z,96559.20
2023-10-20T23:07:45.232Z,96561.20
2023-10-20T23:10:42.643Z,96566.60
2023-10-20T23:13:40.234Z,96565.20
2023-10-20T23:16:37.703Z,96561.80
2023-10-20T23:19:35.534Z,96564.00
2023-10-20T23:22:33.078Z,96578.20
2023-10-20T23:25:30.767Z,96575.80
2023-10-20T23:28:28.132Z,96580.60
2023-10-20T23:31:25.869Z,96597.20
2023-10-20T23:34:23.267Z,96600.40
2023-10-20T23:37:21.032Z,96597.80
2023-10-20T23:40:18.487Z,96594.60
2023-10-20T23:43:16.242Z,96597.80
2023-10-20T23:46:13.666Z,96593.80
2023-10-20T23:49:11.259Z,96579.60
2023-10-20T23:52:08.684Z,96585.20
2023-10-20T23:55:06.271Z,96634.60
2023-10-20T23:58:03.968Z,96628.20
